Time;durP1;ratioP1;P1;durP2;ratioP2;P2;SDS_P1;SDS_P2;PMS_P1;PMS_P2;Temp;Humidity;BMP_temperature;BMP_pressure;BME280_temperature;BME280_humidity;BME280_pressure;Samples;Min_cycle;Max_cycle;Signal;HPM_P1;HPM_P2
2022/04/28 00:00:27;;;;;;;22.98;13.30;;;15.00;99.90;;;;;;5113858;27;20081;-77
2022/04/28 00:02:53;;;;;;;19.70;12.77;;;15.00;99.90;;;;;;5114279;27;20035;-77
2022/04/28 00:05:19;;;;;;;22.48;12.80;;;14.90;99.90;;;;;;5113687;27;20095;-77
2022/04/28 00:07:46;;;;;;;20.23;12.52;;;15.00;99.90;;;;;;5109247;28;20055;-77
2022/04/28 00:10:13;;;;;;;20.38;11.82;;;14.90;99.90;;;;;;5116794;27;20382;-77
2022/04/28 00:12:40;;;;;;;20.58;12.18;;;14.90;99.90;;;;;;5112352;27;20028;-77
2022/04/28 00:15:06;;;;;;;20.67;12.38;;;15.00;99.90;;;;;;5114418;27;20098;-77
2022/04/28 00:17:32;;;;;;;21.73;12.23;;;15.00;99.90;;;;;;5113739;27;20494;-77
2022/04/28 00:19:58;;;;;;;20.10;11.18;;;15.00;99.90;;;;;;5109763;28;20052;-77
2022/04/28 00:22:24;;;;;;;21.85;12.38;;;15.00;99.90;;;;;;5112703;28;20375;-77
2022/04/28 00:24:53;;;;;;;20.10;12.18;;;15.00;99.90;;;;;;5110542;28;20065;-77
2022/04/28 00:27:22;;;;;;;20.27;12.23;;;15.00;99.90;;;;;;5108860;28;20643;-77
2022/04/28 00:29:48;;;;;;;20.00;12.00;;;14.90;99.90;;;;;;5109221;28;20057;-78
2022/04/28 00:32:14;;;;;;;22.70;13.05;;;14.90;99.90;;;;;;5109372;28;20024;-77
2022/04/28 00:34:40;;;;;;;22.73;13.27;;;15.00;99.90;;;;;;5110599;28;20040;-77
2022/04/28 00:37:08;;;;;;;23.85;14.18;;;15.00;99.90;;;;;;5111910;28;20043;-77
2022/04/28 00:39:33;;;;;;;24.05;14.38;;;15.00;99.90;;;;;;5108915;28;20055;-77
2022/04/28 00:41:59;;;;;;;21.80;15.27;;;14.90;99.90;;;;;;5108856;28;20434;-77
2022/04/28 00:44:25;;;;;;;25.13;15.02;;;14.90;99.90;;;;;;5109248;28;20588;-77
2022/04/28 00:46:50;;;;;;;25.08;17.10;;;14.90;99.90;;;;;;5109576;28;20024;-77
2022/04/28 00:52:01;;;;;;;27.77;20.95;;;14.80;99.90;;;;;;5110811;28;20397;-76
2022/04/28 00:54:28;;;;;;;27.17;18.17;;;14.80;99.90;;;;;;5108338;28;20122;-78
2022/04/28 00:56:56;;;;;;;19.33;13.27;;;14.70;99.90;;;;;;5109943;27;20115;-77
2022/04/28 00:59:23;;;;;;;24.88;14.55;;;14.50;99.90;;;;;;5103788;28;20047;-77
2022/04/28 01:01:48;;;;;;;19.63;13.43;;;14.40;99.90;;;;;;5109515;28;20106;-77
2022/04/28 01:04:14;;;;;;;21.38;13.05;;;14.30;99.90;;;;;;5112508;28;20457;-77
2022/04/28 01:06:43;;;;;;;20.58;14.07;;;14.20;99.90;;;;;;5109397;28;20037;-77
2022/04/28 01:09:08;;;;;;;24.60;13.88;;;14.10;99.90;;;;;;5108346;28;20482;-77
2022/04/28 01:11:34;;;;;;;20.45;13.77;;;14.10;99.90;;;;;;5107179;28;20106;-77
2022/04/28 01:14:00;;;;;;;24.00;14.63;;;14.10;99.90;;;;;;5108504;28;20458;-77
2022/04/28 01:16:26;;;;;;;21.20;14.38;;;14.10;99.90;;;;;;5111187;28;20024;-77
2022/04/28 01:18:52;;;;;;;19.90;14.40;;;14.10;99.90;;;;;;5110082;28;20189;-77
2022/04/28 01:21:17;;;;;;;20.15;14.70;;;14.10;99.90;;;;;;5107493;28;20035;-77
2022/04/28 01:23:43;;;;;;;23.40;13.27;;;14.20;99.90;;;;;;5107933;28;20035;-77
2022/04/28 01:26:09;;;;;;;19.20;12.10;;;14.10;99.90;;;;;;5108366;28;20214;-77
2022/04/28 01:28:35;;;;;;;17.48;12.00;;;14.10;99.90;;;;;;5110617;28;20115;-77
2022/04/28 01:31:05;;;;;;;17.52;12.00;;;14.00;99.90;;;;;;5109691;28;20103;-76
2022/04/28 01:33:31;;;;;;;24.38;13.23;;;13.90;99.90;;;;;;5108313;28;20043;-77
2022/04/28 01:35:57;;;;;;;16.45;12.10;;;13.90;99.90;;;;;;5108409;28;20035;-77
2022/04/28 01:38:24;;;;;;;23.88;12.70;;;13.90;99.90;;;;;;5109333;28;20514;-77
2022/04/28 01:40:52;;;;;;;15.77;11.23;;;13.90;99.90;;;;;;5092895;28;20035;-77
2022/04/28 01:43:18;;;;;;;19.30;12.23;;;13.90;99.90;;;;;;5107573;28;20027;-77
2022/04/28 01:45:43;;;;;;;20.85;12.10;;;13.80;99.90;;;;;;5107027;28;20035;-77
2022/04/28 01:48:10;;;;;;;18.42;11.60;;;13.70;99.90;;;;;;5108076;28;20019;-77
2022/04/28 01:50:35;;;;;;;25.65;11.82;;;13.60;99.90;;;;;;5108013;28;20031;-78
2022/04/28 01:55:45;;;;;;;21.77;12.40;;;13.70;99.90;;;;;;5109186;28;20058;-77
2022/04/28 01:58:11;;;;;;;18.75;12.15;;;13.80;99.90;;;;;;5111113;28;20047;-77
2022/04/28 02:00:37;;;;;;;17.98;12.30;;;13.70;99.90;;;;;;5107947;28;20024;-77
2022/04/28 02:03:03;;;;;;;22.52;12.52;;;13.80;99.90;;;;;;5107906;28;20050;-77
2022/04/28 02:05:29;;;;;;;21.40;12.85;;;13.80;99.90;;;;;;5107793;28;20016;-77
2022/04/28 02:07:54;;;;;;;19.08;12.60;;;13.80;99.90;;;;;;5108063;28;20058;-77
2022/04/28 02:10:22;;;;;;;20.83;13.95;;;13.90;99.90;;;;;;5111650;28;20019;-78
2022/04/28 02:12:48;;;;;;;20.65;13.23;;;13.80;99.90;;;;;;5109953;28;20036;-78
2022/04/28 02:15:14;;;;;;;21.45;13.13;;;13.90;99.90;;;;;;5107974;28;20027;-78
2022/04/28 02:17:40;;;;;;;20.95;12.77;;;14.00;99.90;;;;;;5108128;28;20390;-78
2022/04/28 02:20:09;;;;;;;21.17;12.85;;;14.00;99.90;;;;;;5107527;28;20032;-77
2022/04/28 02:22:36;;;;;;;21.55;12.10;;;14.00;99.90;;;;;;5109666;28;20145;-78
2022/04/28 02:25:02;;;;;;;18.88;11.48;;;14.10;99.90;;;;;;5109340;28;20482;-78
2022/04/28 02:27:28;;;;;;;25.08;13.10;;;14.20;99.90;;;;;;5107755;28;20027;-78
2022/04/28 02:29:55;;;;;;;18.65;11.70;;;14.20;99.90;;;;;;5107653;28;20023;-78
2022/04/28 02:32:23;;;;;;;20.38;11.52;;;14.30;99.90;;;;;;5109086;28;20028;-78
2022/04/28 02:34:48;;;;;;;21.88;12.05;;;14.20;99.90;;;;;;5112299;28;20027;-78
2022/04/28 02:37:14;;;;;;;31.00;13.40;;;14.20;99.90;;;;;;5114134;28;20460;-77
2022/04/28 02:39:40;;;;;;;18.17;12.43;;;14.20;99.90;;;;;;5111793;28;20531;-77
2022/04/28 02:42:06;;;;;;;20.25;11.90;;;14.20;99.90;;;;;;5111224;28;20115;-78
2022/04/28 02:44:32;;;;;;;20.45;11.82;;;14.20;99.90;;;;;;5111370;28;20069;-77
2022/04/28 02:46:58;;;;;;;29.45;12.70;;;14.10;99.90;;;;;;5111376;28;20028;-77
2022/04/28 02:49:24;;;;;;;23.38;13.07;;;14.10;99.90;;;;;;5114422;28;20106;-77
2022/04/28 02:51:52;;;;;;;19.23;12.75;;;14.10;99.90;;;;;;5111873;28;20027;-77
2022/04/28 02:54:18;;;;;;;21.20;13.15;;;14.10;99.90;;;;;;5111493;28;20028;-77
2022/04/28 02:56:44;;;;;;;19.88;12.40;;;14.10;99.90;;;;;;5111375;28;20127;-79
2022/04/28 02:59:09;;;;;;;24.02;12.93;;;14.10;99.90;;;;;;5109792;28;20032;-77
2022/04/28 03:01:35;;;;;;;24.02;12.70;;;14.10;99.90;;;;;;5113351;28;20416;-78
2022/04/28 03:04:02;;;;;;;23.10;13.05;;;14.00;99.90;;;;;;5112767;28;20443;-77
2022/04/28 03:11:57;;;;;;;26.50;14.50;;;14.20;99.90;;;;;;5111001;28;20042;-78
2022/04/28 03:14:23;;;;;;;23.08;14.25;;;14.10;99.90;;;;;;5111221;28;20042;-77
2022/04/28 03:16:52;;;;;;;27.30;14.00;;;14.20;99.90;;;;;;5111226;28;20039;-78
2022/04/28 03:19:18;;;;;;;27.25;14.77;;;14.20;99.90;;;;;;5108469;28;20036;-78
2022/04/28 03:21:44;;;;;;;24.48;13.55;;;14.20;99.90;;;;;;5110767;28;20083;-78
2022/04/28 03:24:10;;;;;;;24.20;13.23;;;14.20;99.90;;;;;;5110418;28;20059;-77
2022/04/28 03:26:38;;;;;;;25.42;14.50;;;14.20;99.90;;;;;;5110462;28;20022;-77
2022/04/28 03:29:04;;;;;;;28.05;13.73;;;14.20;99.90;;;;;;5110459;27;20494;-77
2022/04/28 03:31:30;;;;;;;24.02;12.85;;;14.20;99.90;;;;;;5113189;28;20027;-77
2022/04/28 03:33:55;;;;;;;25.17;14.23;;;14.20;99.90;;;;;;5111341;28;20028;-77
2022/04/28 03:39:05;;;;;;;25.80;13.52;;;14.40;99.90;;;;;;5110240;28;20088;-78
2022/04/28 03:41:31;;;;;;;24.50;12.52;;;14.40;99.90;;;;;;5110324;28;20020;-77
2022/04/28 03:43:57;;;;;;;24.52;12.77;;;14.40;99.90;;;;;;5109961;28;20418;-78
2022/04/28 03:46:24;;;;;;;27.88;12.95;;;14.40;99.90;;;;;;5113808;28;20028;-77
2022/04/28 03:48:52;;;;;;;25.10;13.75;;;14.40;99.90;;;;;;5110474;28;20111;-76
2022/04/28 03:51:18;;;;;;;24.00;13.60;;;14.30;99.90;;;;;;5110107;28;20034;-77
2022/04/28 03:53:44;;;;;;;31.13;14.75;;;14.30;99.90;;;;;;5110460;28;20024;-78
2022/04/28 03:56:09;;;;;;;24.20;14.18;;;14.20;99.90;;;;;;5110444;28;20024;-78
2022/04/28 03:58:35;;;;;;;30.38;16.58;;;14.20;99.90;;;;;;5112560;28;20042;-77
2022/04/28 04:01:01;;;;;;;23.55;16.10;;;14.20;99.90;;;;;;5111187;28;20554;-78
2022/04/28 04:03:27;;;;;;;30.65;18.55;;;14.20;99.90;;;;;;5109446;28;20035;-78
2022/04/28 04:05:53;;;;;;;27.73;18.90;;;14.20;99.90;;;;;;5109768;28;20114;-78
2022/04/28 04:08:18;;;;;;;35.60;21.58;;;14.20;99.90;;;;;;5110254;28;20536;-77
2022/04/28 04:10:44;;;;;;;29.23;22.02;;;14.10;99.90;;;;;;5110998;28;20020;-78
2022/04/28 04:13:10;;;;;;;30.33;20.63;;;14.20;99.90;;;;;;5112267;28;20031;-78
2022/04/28 04:15:35;;;;;;;31.15;19.50;;;14.10;99.90;;;;;;5111075;28;20034;-77
2022/04/28 04:18:02;;;;;;;23.65;16.20;;;14.10;99.90;;;;;;5108915;28;20042;-78
2022/04/28 04:20:29;;;;;;;28.13;15.32;;;14.10;99.90;;;;;;5109108;27;20040;-78
2022/04/28 04:22:54;;;;;;;29.02;15.48;;;14.10;99.90;;;;;;5109782;28;20088;-78
2022/04/28 04:25:23;;;;;;;24.27;15.43;;;14.10;99.90;;;;;;5111820;28;20027;-78
2022/04/28 04:27:49;;;;;;;27.10;16.00;;;14.10;99.90;;;;;;5111301;28;20092;-77
2022/04/28 04:32:59;;;;;;;23.17;15.88;;;14.10;99.90;;;;;;5109313;28;20084;-77
2022/04/28 04:35:25;;;;;;;25.20;15.40;;;14.20;99.90;;;;;;5109281;28;20453;-77
2022/04/28 04:37:52;;;;;;;24.30;14.50;;;14.10;99.90;;;;;;5093433;28;20110;-78
2022/04/28 04:40:18;;;;;;;22.85;15.57;;;14.10;99.90;;;;;;5113220;28;20103;-77
2022/04/28 04:42:43;;;;;;;27.45;15.63;;;14.10;99.90;;;;;;5109044;28;20106;-77
2022/04/28 04:45:10;;;;;;;25.80;15.52;;;14.10;99.90;;;;;;5109136;28;20024;-77
2022/04/28 04:47:36;;;;;;;27.70;16.52;;;14.20;99.90;;;;;;5108412;28;20023;-77
2022/04/28 04:50:03;;;;;;;26.20;15.55;;;14.20;99.90;;;;;;5109724;28;20030;-78
2022/04/28 04:52:29;;;;;;;26.58;15.73;;;14.20;99.90;;;;;;5111660;28;20517;-77
2022/04/28 04:54:55;;;;;;;21.70;15.10;;;14.20;99.90;;;;;;5110268;28;20055;-77
2022/04/28 04:57:21;;;;;;;31.55;15.93;;;14.30;99.90;;;;;;5108889;28;20496;-77
2022/04/28 04:59:46;;;;;;;25.25;15.32;;;14.30;99.90;;;;;;5108538;28;20027;-77
2022/04/28 05:02:12;;;;;;;27.60;15.13;;;14.30;99.90;;;;;;5108934;28;20035;-77
2022/04/28 05:04:38;;;;;;;25.50;15.13;;;14.40;99.90;;;;;;5110976;28;20031;-78
2022/04/28 05:07:03;;;;;;;25.77;15.13;;;14.50;99.90;;;;;;5110248;28;20027;-77
2022/04/28 05:09:29;;;;;;;28.02;15.25;;;14.40;99.90;;;;;;5108764;27;20051;-77
2022/04/28 05:11:55;;;;;;;25.48;14.52;;;14.50;99.90;;;;;;5108874;28;20111;-77
2022/04/28 05:14:20;;;;;;;28.58;15.13;;;14.50;99.90;;;;;;5107188;28;20023;-77
2022/04/28 05:16:46;;;;;;;24.48;14.60;;;14.50;99.90;;;;;;5109482;28;20059;-77
2022/04/28 05:19:12;;;;;;;23.25;15.32;;;14.50;99.90;;;;;;5111283;28;20028;-77
2022/04/28 05:21:37;;;;;;;25.55;14.70;;;14.40;99.90;;;;;;5108337;28;20035;-77
2022/04/28 05:24:04;;;;;;;24.02;13.73;;;14.50;99.90;;;;;;5108353;28;20020;-78
2022/04/28 05:26:29;;;;;;;24.95;13.35;;;14.50;99.90;;;;;;5108366;28;20054;-77
2022/04/28 05:28:55;;;;;;;24.10;13.57;;;14.50;99.90;;;;;;5109120;28;20051;-77
2022/04/28 05:31:21;;;;;;;23.67;13.38;;;14.50;99.90;;;;;;5111986;28;20371;-77
2022/04/28 05:33:46;;;;;;;26.45;14.07;;;14.50;99.90;;;;;;5109712;28;20031;-77
2022/04/28 05:36:14;;;;;;;21.75;13.40;;;14.60;99.90;;;;;;5108167;28;20054;-78
2022/04/28 05:38:40;;;;;;;22.98;12.80;;;14.60;99.90;;;;;;5108727;28;20059;-77
2022/04/28 05:41:06;;;;;;;23.55;13.25;;;14.70;99.90;;;;;;5108050;28;20031;-77
2022/04/28 05:46:19;;;;;;;22.38;13.25;;;14.70;99.90;;;;;;5111828;28;20089;-77
2022/04/28 05:48:45;;;;;;;25.30;14.50;;;14.70;99.90;;;;;;5108513;28;20483;-77
2022/04/28 05:51:12;;;;;;;24.88;13.30;;;14.70;99.90;;;;;;5108174;28;20031;-77
2022/04/28 05:53:38;;;;;;;31.20;13.45;;;14.70;99.90;;;;;;5108299;28;20077;-78
2022/04/28 05:56:05;;;;;;;26.13;13.85;;;14.70;99.90;;;;;;5108146;28;20094;-77
2022/04/28 05:58:31;;;;;;;26.60;13.93;;;14.60;99.90;;;;;;5110061;28;20120;-78
2022/04/28 06:00:57;;;;;;;24.23;13.25;;;14.50;99.90;;;;;;5109740;28;20023;-78
2022/04/28 06:03:22;;;;;;;23.25;13.27;;;14.60;99.90;;;;;;5107571;28;20493;-79
2022/04/28 06:05:48;;;;;;;21.92;12.98;;;14.60;99.90;;;;;;5106784;28;20530;-79
2022/04/28 06:08:14;;;;;;;28.35;13.85;;;14.60;99.90;;;;;;5110602;28;20031;-79
2022/04/28 06:10:39;;;;;;;28.90;14.20;;;14.70;99.90;;;;;;5114410;28;20031;-79
2022/04/28 06:13:06;;;;;;;29.33;14.05;;;14.70;99.90;;;;;;5113539;28;20296;-79
2022/04/28 06:15:32;;;;;;;25.75;13.23;;;14.70;99.90;;;;;;5111749;28;20116;-79
2022/04/28 06:17:58;;;;;;;28.10;13.48;;;14.80;99.90;;;;;;5111440;28;20073;-80
2022/04/28 06:20:24;;;;;;;24.17;13.45;;;14.80;99.90;;;;;;5111744;28;20495;-76
2022/04/28 06:22:52;;;;;;;22.25;13.05;;;14.90;99.90;;;;;;5111873;28;20430;-81
2022/04/28 06:25:19;;;;;;;22.75;13.07;;;15.00;99.90;;;;;;5115692;28;20482;-79
2022/04/28 06:27:44;;;;;;;25.15;13.38;;;15.00;99.90;;;;;;5113721;28;20039;-86
2022/04/28 06:30:10;;;;;;;22.45;12.75;;;15.00;99.90;;;;;;5114180;28;20381;-86
2022/04/28 06:32:37;;;;;;;27.92;14.43;;;15.10;99.90;;;;;;5113300;28;20545;-88
2022/04/28 06:35:04;;;;;;;24.15;13.27;;;15.20;99.90;;;;;;5113465;28;20490;-89
2022/04/28 06:37:29;;;;;;;28.40;13.07;;;15.20;99.90;;;;;;5114330;28;20040;-86
2022/04/28 06:39:55;;;;;;;25.38;12.60;;;15.20;99.90;;;;;;5114488;28;20030;-85
2022/04/28 06:42:21;;;;;;;25.83;12.15;;;15.20;99.90;;;;;;5113685;28;20036;-85
2022/04/28 06:44:47;;;;;;;26.65;13.05;;;15.20;99.90;;;;;;5112565;28;20016;-82
2022/04/28 06:47:13;;;;;;;24.40;12.23;;;15.20;99.90;;;;;;5113015;28;20041;-85
2022/04/28 06:49:39;;;;;;;27.63;13.45;;;15.30;99.90;;;;;;5114450;27;20085;-85
2022/04/28 06:52:05;;;;;;;27.17;14.73;;;15.50;99.90;;;;;;5114323;28;20043;-87
2022/04/28 06:54:31;;;;;;;24.88;12.30;;;15.60;99.90;;;;;;5113826;28;20019;-87
2022/04/28 06:56:58;;;;;;;22.88;12.88;;;15.70;99.90;;;;;;5112455;28;20482;-85
2022/04/28 06:59:24;;;;;;;23.48;12.65;;;15.90;99.90;;;;;;5111548;28;20044;-86
2022/04/28 07:01:53;;;;;;;21.13;12.07;;;15.90;99.90;;;;;;5114192;28;20058;-86
2022/04/28 07:04:19;;;;;;;20.67;11.70;;;16.00;99.90;;;;;;5115645;27;20027;-79
2022/04/28 07:06:44;;;;;;;22.33;11.73;;;16.00;99.90;;;;;;5109684;28;20031;-84
2022/04/28 07:09:10;;;;;;;22.77;12.05;;;16.10;99.90;;;;;;5111815;28;20027;-88
2022/04/28 07:11:36;;;;;;;25.42;11.50;;;16.10;99.90;;;;;;5111279;28;20216;-87
2022/04/28 07:14:02;;;;;;;27.02;12.30;;;16.20;99.90;;;;;;5111457;28;20038;-87
2022/04/28 07:16:27;;;;;;;22.35;11.02;;;16.20;99.90;;;;;;5113841;27;20028;-87
2022/04/28 07:18:53;;;;;;;23.83;12.18;;;16.30;99.90;;;;;;5111399;28;20108;-88
2022/04/28 07:21:19;;;;;;;21.90;10.65;;;16.40;99.90;;;;;;5111403;28;20047;-87
2022/04/28 07:23:44;;;;;;;21.60;9.73;;;16.50;99.90;;;;;;5111166;28;20073;-88
2022/04/28 07:26:10;;;;;;;17.77;10.23;;;16.70;99.90;;;;;;5110735;28;20514;-88
2022/04/28 07:28:36;;;;;;;20.50;9.00;;;16.70;99.90;;;;;;5113230;28;20075;-88
2022/04/28 07:31:05;;;;;;;22.40;9.85;;;16.80;99.90;;;;;;5114570;28;20024;-86
2022/04/28 07:33:30;;;;;;;21.38;9.48;;;17.00;99.90;;;;;;5110509;27;20044;-77
2022/04/28 07:35:56;;;;;;;18.58;9.00;;;17.20;99.90;;;;;;5110929;28;20029;-85
2022/04/28 07:38:22;;;;;;;19.38;8.88;;;17.30;99.90;;;;;;5110328;28;20039;-85
2022/04/28 07:40:48;;;;;;;21.27;9.05;;;17.50;99.90;;;;;;5111150;28;20020;-85
2022/04/28 07:43:14;;;;;;;16.73;8.18;;;17.70;99.90;;;;;;5113136;28;20031;-85
2022/04/28 07:45:40;;;;;;;17.58;7.78;;;17.80;99.90;;;;;;5110117;28;20038;-86
2022/04/28 07:48:06;;;;;;;12.75;7.20;;;17.90;99.90;;;;;;5110256;28;20115;-86
2022/04/28 07:50:32;;;;;;;15.18;7.63;;;18.00;99.90;;;;;;5110238;28;20070;-83
2022/04/28 07:52:58;;;;;;;12.02;6.88;;;18.10;99.90;;;;;;5109671;28;20048;-85
2022/04/28 07:55:23;;;;;;;15.80;7.82;;;18.20;99.90;;;;;;5111823;28;20089;-86
2022/04/28 07:57:52;;;;;;;17.05;8.30;;;18.30;99.90;;;;;;5108614;28;20347;-84
2022/04/28 08:00:18;;;;;;;16.58;7.47;;;18.40;99.90;;;;;;5111254;28;20103;-85
2022/04/28 08:02:44;;;;;;;14.85;7.75;;;18.50;99.90;;;;;;5106608;28;20102;-83
2022/04/28 08:05:09;;;;;;;13.30;7.25;;;18.60;99.90;;;;;;5109961;27;20554;-84
2022/04/28 08:07:35;;;;;;;16.33;7.22;;;18.80;99.90;;;;;;5112624;28;20111;-84
2022/04/28 08:10:04;;;;;;;14.35;7.30;;;18.90;99.90;;;;;;5105919;28;20020;-82
2022/04/28 08:12:29;;;;;;;16.42;7.95;;;19.00;99.90;;;;;;5110702;28;20032;-84
2022/04/28 08:14:55;;;;;;;15.10;7.85;;;19.10;99.90;;;;;;5101395;27;20061;-85
2022/04/28 08:17:21;;;;;;;16.77;7.40;;;19.20;99.90;;;;;;5103275;28;20034;-81
2022/04/28 08:19:47;;;;;;;14.20;6.93;;;19.20;99.90;;;;;;5097987;28;20073;-82
2022/04/28 08:22:13;;;;;;;18.73;7.38;;;19.20;99.90;;;;;;5106758;28;20031;-84
2022/04/28 08:24:39;;;;;;;16.23;7.63;;;19.30;99.90;;;;;;5095732;28;20032;-79
2022/04/28 08:27:04;;;;;;;17.48;7.30;;;19.40;99.90;;;;;;5095064;28;20032;-81
2022/04/28 08:29:30;;;;;;;15.90;7.90;;;19.40;99.90;;;;;;5089811;28;20441;-80
2022/04/28 08:31:56;;;;;;;13.23;7.35;;;19.50;99.90;;;;;;5106193;28;20032;-80
2022/04/28 08:34:22;;;;;;;13.68;6.30;;;19.50;99.90;;;;;;5097043;27;20039;-81
2022/04/28 08:36:52;;;;;;;13.02;6.40;;;19.50;99.90;;;;;;5093994;28;20100;-82
2022/04/28 08:39:18;;;;;;;13.77;6.57;;;19.50;99.90;;;;;;5094221;28;20133;-82
2022/04/28 08:41:47;;;;;;;15.40;6.05;;;19.50;99.90;;;;;;5094117;28;20023;-78
2022/04/28 08:44:21;;;;;;;11.00;6.28;;;19.50;99.90;;;;;;5092350;28;20073;-83
2022/04/28 08:46:51;;;;;;;11.23;6.03;;;19.60;99.90;;;;;;5090268;28;20040;-83
2022/04/28 08:49:18;;;;;;;12.32;6.47;;;19.60;99.90;;;;;;5093519;28;20028;-83
2022/04/28 08:51:44;;;;;;;13.45;6.72;;;19.70;99.90;;;;;;5104879;28;20041;-82
2022/04/28 08:54:11;;;;;;;13.10;6.40;;;19.70;99.90;;;;;;5102058;28;20032;-82
2022/04/28 08:56:39;;;;;;;11.55;5.90;;;19.80;99.90;;;;;;5104513;28;20031;-82
2022/04/28 08:59:06;;;;;;;11.23;5.70;;;19.90;99.90;;;;;;5090941;28;20047;-82
2022/04/28 09:01:32;;;;;;;14.25;7.03;;;20.00;99.90;;;;;;5090704;28;20133;-82
2022/04/28 09:04:00;;;;;;;11.43;5.80;;;20.10;99.90;;;;;;5093902;28;20027;-82
2022/04/28 09:06:29;;;;;;;11.55;5.55;;;20.10;99.90;;;;;;5094007;28;20089;-81
2022/04/28 09:08:57;;;;;;;13.30;5.97;;;20.20;99.90;;;;;;5095097;27;20112;-82
2022/04/28 09:11:28;;;;;;;13.77;6.13;;;20.40;99.90;;;;;;5105079;28;20470;-82
2022/04/28 09:14:10;;;;;;;11.90;5.93;;;20.40;99.90;;;;;;5090579;28;20074;-82
2022/04/28 09:16:56;;;;;;;16.65;5.88;;;20.50;99.90;;;;;;5105513;28;20035;-82
2022/04/28 09:19:34;;;;;;;12.82;5.63;;;20.40;99.90;;;;;;5105140;28;20035;-82
2022/04/28 09:22:12;;;;;;;14.77;5.60;;;20.50;99.90;;;;;;5103920;28;20405;-82
2022/04/28 09:24:42;;;;;;;13.43;5.65;;;20.50;99.90;;;;;;5094058;28;20036;-82
2022/04/28 09:27:08;;;;;;;16.30;7.00;;;20.40;99.90;;;;;;5093288;28;20032;-83
2022/04/28 09:29:39;;;;;;;10.75;6.03;;;20.50;99.90;;;;;;5092714;28;20031;-83
2022/04/28 09:32:13;;;;;;;11.95;6.22;;;20.50;99.90;;;;;;5089810;28;20032;-77
2022/04/28 09:34:47;;;;;;;;;;;20.70;99.90;;;;;;5098378;28;20020;-78
2022/04/28 09:37:20;;;;;;;14.10;6.23;;;20.80;99.90;;;;;;5105139;28;19923;-84
2022/04/28 09:42:43;;;;;;;13.82;6.45;;;21.00;99.90;;;;;;5108499;28;20077;-78
2022/04/28 09:45:10;;;;;;;14.80;5.88;;;21.10;99.90;;;;;;5110487;28;20027;-78
2022/04/28 09:47:37;;;;;;;11.80;5.60;;;21.30;99.90;;;;;;5112217;28;20072;-78
2022/04/28 09:50:15;;;;;;;9.68;5.53;;;21.40;99.90;;;;;;5108968;28;20016;-76
2022/04/28 09:52:43;;;;;;;11.23;5.75;;;21.50;99.90;;;;;;5111972;27;20039;-78
2022/04/28 09:55:10;;;;;;;12.73;6.30;;;21.50;99.90;;;;;;5129031;28;20033;-79
2022/04/28 09:57:36;;;;;;;15.95;6.75;;;21.60;99.90;;;;;;5113713;27;20042;-85
2022/04/28 10:00:03;;;;;;;13.43;5.78;;;21.80;99.90;;;;;;5112554;28;20032;-85
2022/04/28 10:02:29;;;;;;;11.82;5.95;;;21.80;99.90;;;;;;5109207;28;20528;-83
2022/04/28 10:04:55;;;;;;;11.02;5.63;;;21.80;99.90;;;;;;5123804;27;20103;-83
2022/04/28 10:07:22;;;;;;;11.18;5.40;;;21.90;99.90;;;;;;5122849;28;20045;-83
2022/04/28 10:09:50;;;;;;;14.57;6.85;;;22.00;99.90;;;;;;5102672;27;20034;-83
2022/04/28 10:12:20;;;;;;;14.00;7.03;;;22.10;99.80;;;;;;5103714;28;20027;-83
2022/04/28 10:14:47;;;;;;;16.10;6.57;;;22.20;99.90;;;;;;5100585;28;20080;-83
2022/04/28 10:17:15;;;;;;;12.02;5.90;;;22.10;99.90;;;;;;5107396;28;20032;-83
2022/04/28 10:19:47;;;;;;;11.82;5.28;;;22.30;99.60;;;;;;5108964;28;20109;-83
2022/04/28 10:22:16;;;;;;;11.23;5.60;;;22.40;99.90;;;;;;5109774;28;20039;-83
2022/04/28 10:33:15;;;;;;;11.10;5.22;;;22.40;97.00;;;;;;5107507;28;20401;-83
2022/04/28 10:35:50;;;;;;;10.38;5.55;;;22.30;97.20;;;;;;5106748;28;20031;-82
2022/04/28 10:38:23;;;;;;;16.70;6.07;;;22.40;97.70;;;;;;5106953;28;20047;-81
2022/04/28 10:41:10;;;;;;;7.68;4.90;;;22.50;99.10;;;;;;5108284;28;20043;-82
2022/04/28 10:43:40;;;;;;;11.05;5.35;;;22.60;97.70;;;;;;5107391;28;20085;-82
2022/04/28 10:46:08;;;;;;;11.45;4.97;;;22.80;96.30;;;;;;5107919;28;20104;-80
2022/04/28 10:48:43;;;;;;;8.90;4.68;;;22.90;97.60;;;;;;5107185;28;20043;-79
2022/04/28 10:51:16;;;;;;;11.43;5.05;;;22.90;98.10;;;;;;5106311;28;20088;-82
2022/04/28 10:54:09;;;;;;;9.07;5.03;;;23.10;98.00;;;;;;5108653;28;20040;-80
2022/04/28 10:57:02;;;;;;;9.13;4.57;;;23.10;96.70;;;;;;5110342;27;20060;-81
2022/04/28 10:59:29;;;;;;;8.75;4.97;;;23.40;94.80;;;;;;5110222;28;20024;-80
2022/04/28 11:01:56;;;;;;;11.25;4.60;;;23.40;94.80;;;;;;5110962;28;20032;-79
2022/04/28 11:04:24;;;;;;;9.65;4.22;;;23.40;92.90;;;;;;5109085;28;20062;-80
2022/04/28 11:06:56;;;;;;;12.18;5.28;;;23.60;93.70;;;;;;5108884;28;20054;-81
2022/04/28 11:09:42;;;;;;;13.32;5.22;;;23.40;91.30;;;;;;5110911;28;20367;-81
2022/04/28 11:12:18;;;;;;;13.20;4.95;;;23.50;94.20;;;;;;5109404;28;20085;-82
2022/04/28 11:15:06;;;;;;;10.25;5.10;;;23.70;93.20;;;;;;5108791;28;20421;-82
2022/04/28 11:17:35;;;;;;;11.95;5.25;;;23.70;91.70;;;;;;5109247;28;20094;-83
2022/04/28 11:20:10;;;;;;;9.63;4.57;;;23.60;92.50;;;;;;5109481;28;20040;-80
2022/04/28 11:22:35;;;;;;;9.68;5.10;;;23.70;92.90;;;;;;5112608;28;20057;-75
2022/04/28 11:25:13;;;;;;;12.20;5.30;;;23.50;91.20;;;;;;5113540;28;20417;-76
2022/04/28 11:27:39;;;;;;;10.80;5.10;;;23.60;91.50;;;;;;5112459;28;20038;-77
2022/04/28 11:30:07;;;;;;;9.77;4.47;;;23.70;92.60;;;;;;5110433;28;20032;-83
2022/04/28 11:32:32;;;;;;;12.43;4.82;;;23.70;91.70;;;;;;5109467;28;20039;-79
2022/04/28 11:34:59;;;;;;;9.40;4.05;;;23.80;91.80;;;;;;5110522;28;20031;-82
2022/04/28 11:37:26;;;;;;;10.35;5.00;;;23.90;91.20;;;;;;5113690;28;20032;-82
2022/04/28 11:39:56;;;;;;;9.05;4.65;;;23.80;89.10;;;;;;5111624;28;20094;-80
2022/04/28 11:42:25;;;;;;;9.73;4.50;;;23.90;89.70;;;;;;5109727;28;20405;-80
2022/04/28 11:44:56;;;;;;;9.52;4.45;;;24.00;90.50;;;;;;5109616;28;20103;-80
2022/04/28 11:47:24;;;;;;;11.93;5.20;;;24.10;90.00;;;;;;5109599;27;20027;-80
2022/04/28 11:50:03;;;;;;;12.45;4.32;;;24.10;90.10;;;;;;5110876;28;20028;-81
2022/04/28 11:52:32;;;;;;;9.95;5.10;;;24.00;89.80;;;;;;5104727;27;20502;-81
2022/04/28 11:55:08;;;;;;;9.45;4.97;;;24.00;89.40;;;;;;5110897;28;20490;-80
2022/04/28 11:57:39;;;;;;;9.27;4.50;;;24.10;88.80;;;;;;5108926;28;20043;-80
2022/04/28 12:00:12;;;;;;;8.98;4.53;;;24.30;90.50;;;;;;5109797;28;20043;-81
2022/04/28 12:02:39;;;;;;;10.38;4.53;;;24.40;89.60;;;;;;5107983;28;20486;-82
2022/04/28 12:05:19;;;;;;;11.15;5.90;;;24.20;88.40;;;;;;5108145;28;20080;-81
2022/04/28 12:07:52;;;;;;;10.10;4.68;;;24.20;87.40;;;;;;5107715;27;20039;-84
2022/04/28 12:16:02;;;;;;;7.93;4.53;;;24.40;86.20;;;;;;5105747;27;20026;-82
2022/04/28 12:19:29;;;;;;;8.23;4.60;;;24.40;86.80;;;;;;5101205;27;20046;-83
2022/04/28 12:21:38;;;;;;;10.32;5.05;;;24.40;88.30;;;;;;5088131;28;20047;-82
2022/04/28 12:24:18;;;;;;;9.50;4.80;;;24.40;89.20;;;;;;5104874;28;20084;-83
2022/04/28 12:26:46;;;;;;;11.35;4.95;;;24.40;87.20;;;;;;5101013;28;20055;-83
2022/04/28 12:29:16;;;;;;;10.93;5.10;;;24.30;90.00;;;;;;5100219;27;20047;-82
2022/04/28 12:31:43;;;;;;;8.80;4.93;;;24.50;90.70;;;;;;5100639;28;20474;-84
2022/04/28 12:34:13;;;;;;;8.30;4.65;;;24.60;91.10;;;;;;5105476;27;20362;-84
2022/04/28 12:36:46;;;;;;;10.95;5.00;;;24.60;87.60;;;;;;5103448;28;20031;-83
2022/04/28 12:39:12;;;;;;;9.63;4.37;;;24.30;86.40;;;;;;5097638;28;20077;-82
2022/04/28 12:41:43;;;;;;;9.70;4.32;;;24.10;84.60;;;;;;5102479;28;20039;-81
2022/04/28 12:44:09;;;;;;;9.18;4.00;;;24.20;84.70;;;;;;5097799;28;20110;-83
2022/04/28 12:46:37;;;;;;;7.70;3.95;;;24.60;86.00;;;;;;5100784;28;20130;-83
2022/04/28 12:49:05;;;;;;;7.78;3.83;;;24.90;81.60;;;;;;5103790;28;20031;-82
2022/04/28 12:51:44;;;;;;;8.73;4.05;;;24.90;81.80;;;;;;5097272;27;20032;-83
2022/04/28 12:54:11;;;;;;;8.40;4.22;;;25.00;82.20;;;;;;5098071;28;20456;-84
2022/04/28 12:56:37;;;;;;;8.88;4.20;;;24.90;85.10;;;;;;5093986;28;20083;-83
2022/04/28 12:59:07;;;;;;;8.70;3.67;;;24.80;81.40;;;;;;5103912;27;20040;-82
2022/04/28 13:01:34;;;;;;;8.68;4.05;;;24.90;78.20;;;;;;5089201;28;20058;-84
2022/04/28 13:04:10;;;;;;;8.98;3.80;;;24.90;79.90;;;;;;5099927;28;20039;-81
2022/04/28 13:06:38;;;;;;;7.82;3.90;;;24.80;81.10;;;;;;5093209;27;20511;-77
2022/04/28 13:09:09;;;;;;;15.68;6.13;;;24.70;78.60;;;;;;5097413;27;20032;-83
2022/04/28 13:11:39;;;;;;;15.68;6.30;;;24.80;85.60;;;;;;5093249;27;20147;-84